Time;durP1;ratioP1;P1;durP2;ratioP2;P2;SDS_P1;SDS_P2;PMS_P1;PMS_P2;Temp;Humidity;BMP_temperature;BMP_pressure;BME280_temperature;BME280_humidity;BME280_pressure;Samples;Min_cycle;Max_cycle;Signal;HPM_P1;HPM_P2
2021/05/21 00:02:48;405113.00;1.35;698.60;72706.00;0.24;126.44;;;;;17.00;1.00;;;;;;2272839;61;1418;-88
2021/05/21 00:05:15;379423.00;1.26;654.43;80882.00;0.27;140.56;;;;;17.20;1.00;;;;;;2272175;61;1107;-86
2021/05/21 00:07:42;424420.00;1.41;731.79;72102.00;0.24;125.39;;;;;17.30;1.00;;;;;;2271936;61;1732;-88
2021/05/21 00:10:09;375302.00;1.25;647.35;73014.00;0.24;126.97;;;;;17.00;1.00;;;;;;2270814;61;1397;-88
2021/05/21 00:12:35;510004.00;1.70;879.05;74578.00;0.25;129.67;;;;;16.60;1.00;;;;;;2271175;61;1996;-88
2021/05/21 00:15:03;388240.00;1.29;669.59;76643.00;0.26;133.24;;;;;16.30;1.00;;;;;;2271657;61;1158;-88
2021/05/21 00:17:29;404188.00;1.35;697.00;74203.00;0.25;129.02;;;;;16.40;1.00;;;;;;2271436;61;1226;-88
2021/05/21 00:19:56;411000.00;1.37;708.72;80358.00;0.27;139.66;;;;;16.70;1.00;;;;;;2271283;61;1317;-88
2021/05/21 00:22:23;389284.00;1.30;671.38;71617.00;0.24;124.55;;;;;16.70;1.00;;;;;;2271476;61;1100;-88
2021/05/21 00:24:49;382467.00;1.27;659.67;75802.00;0.25;131.79;;;;;16.70;1.00;;;;;;2271624;61;1123;-88
2021/05/21 00:27:16;343009.00;1.14;591.85;54046.00;0.18;94.18;;;;;16.80;1.00;;;;;;2271384;61;1199;-88
2021/05/21 00:29:43;385193.00;1.28;664.35;79233.00;0.26;137.71;;;;;16.80;1.00;;;;;;2271180;61;1382;-88
2021/05/21 00:32:09;452183.00;1.51;779.54;68730.00;0.23;119.57;;;;;16.90;1.00;;;;;;2271375;61;1916;-88
2021/05/21 00:34:36;454241.00;1.51;783.08;78087.00;0.26;135.73;;;;;16.90;1.00;;;;;;2270919;61;1158;-88
2021/05/21 00:37:03;491349.00;1.64;846.93;83148.00;0.28;144.47;;;;;17.00;1.00;;;;;;2271171;61;1101;-88
2021/05/21 00:39:30;562127.00;1.87;968.87;84177.00;0.28;146.25;;;;;16.90;1.00;;;;;;2271488;61;1288;-87
2021/05/21 00:41:56;579572.00;1.93;998.96;60961.00;0.20;106.14;;;;;17.00;1.00;;;;;;2271341;61;1262;-88
2021/05/21 00:44:23;341022.00;1.14;588.43;75225.00;0.25;130.79;;;;;16.80;1.00;;;;;;2271422;61;1926;-88
2021/05/21 00:46:49;238356.00;0.79;411.92;80855.00;0.27;140.51;;;;;17.00;1.00;;;;;;2271457;61;1179;-88
2021/05/21 00:49:18;267858.00;0.89;462.66;64544.00;0.22;112.33;;;;;17.10;1.00;;;;;;2271924;61;1135;-88
2021/05/21 00:51:44;714840.00;2.38;1232.98;117094.00;0.39;203.07;;;;;17.10;1.00;;;;;;2271584;61;1316;-87
2021/05/21 00:54:16;365901.00;1.22;631.19;72800.00;0.24;126.60;;;;;17.10;1.00;;;;;;2271537;61;1931;-88
2021/05/21 00:56:44;490081.00;1.63;844.75;93608.00;0.31;162.54;;;;;17.00;1.00;;;;;;2271691;61;1134;-88
2021/05/21 00:59:10;443275.00;1.48;764.22;75313.00;0.25;130.94;;;;;17.20;1.00;;;;;;2271132;61;1013;-87
2021/05/21 01:01:37;508126.00;1.69;875.82;70772.00;0.24;123.09;;;;;17.00;1.00;;;;;;2271605;61;1286;-88
2021/05/21 01:04:04;363723.00;1.21;627.45;63323.00;0.21;110.22;;;;;16.70;1.00;;;;;;2271210;61;1084;-88
2021/05/21 01:06:31;383499.00;1.28;661.44;76606.00;0.26;133.17;;;;;16.50;1.00;;;;;;2271523;61;1140;-88
2021/05/21 01:08:58;556954.00;1.86;959.95;79781.00;0.27;138.66;;;;;16.70;1.00;;;;;;2271426;61;922;-87
2021/05/21 01:11:25;472246.00;1.57;814.05;71732.00;0.24;124.75;;;;;16.80;1.00;;;;;;2271277;61;1345;-88
2021/05/21 01:13:52;391829.00;1.31;675.76;96086.00;0.32;166.82;;;;;17.00;1.00;;;;;;2271477;61;1924;-87
2021/05/21 01:16:18;321074.00;1.07;554.14;72885.00;0.24;126.75;;;;;17.10;1.00;;;;;;2271467;61;1068;-88
2021/05/21 01:18:45;374095.00;1.25;645.28;67940.00;0.23;118.20;;;;;17.20;1.00;;;;;;2271337;61;1094;-87
2021/05/21 01:21:12;414531.00;1.38;714.79;81375.00;0.27;141.41;;;;;17.30;1.00;;;;;;2271035;61;1252;-87
2021/05/21 01:23:38;434220.00;1.45;748.64;78707.00;0.26;136.80;;;;;17.30;1.00;;;;;;2271396;61;1007;-88
2021/05/21 01:26:05;406690.00;1.36;701.31;83221.00;0.28;144.60;;;;;17.10;1.00;;;;;;2271364;61;1135;-87
2021/05/21 01:28:31;458636.00;1.53;790.64;74498.00;0.25;129.53;;;;;17.10;1.00;;;;;;2271501;61;1155;-88
2021/05/21 01:30:58;407803.00;1.36;703.22;77683.00;0.26;135.03;;;;;16.70;1.00;;;;;;2271920;61;1400;-88
2021/05/21 01:33:24;479584.00;1.60;826.68;75673.00;0.25;131.56;;;;;16.40;1.00;;;;;;2271769;61;1989;-88
2021/05/21 01:35:51;377543.00;1.26;651.20;80674.00;0.27;140.20;;;;;16.30;1.00;;;;;;2271625;61;1215;-88
2021/05/21 01:38:19;411433.00;1.37;709.46;77738.00;0.26;135.13;;;;;16.00;1.00;;;;;;2272080;61;1046;-87
2021/05/21 01:40:46;434533.00;1.45;749.18;88128.00;0.29;153.08;;;;;16.10;1.00;;;;;;2272504;61;1317;-87
2021/05/21 01:43:13;321585.00;1.07;555.02;81604.00;0.27;141.81;;;;;16.20;1.00;;;;;;2272534;61;1080;-88
2021/05/21 01:45:39;401184.00;1.34;691.84;139555.00;0.47;241.80;;;;;16.10;1.00;;;;;;2272420;61;1168;-89
2021/05/21 01:48:07;495645.00;1.65;854.33;62786.00;0.21;109.29;;;;;15.90;1.00;;;;;;2272589;61;1057;-88
2021/05/21 01:50:34;461655.00;1.54;795.83;83869.00;0.28;145.72;;;;;16.00;1.00;;;;;;2272401;61;1378;-88
2021/05/21 01:53:00;332381.00;1.11;573.58;75403.00;0.25;131.10;;;;;16.20;1.00;;;;;;2272475;61;1924;-88
2021/05/21 01:55:27;245985.00;0.82;425.05;76550.00;0.26;133.08;;;;;16.00;1.00;;;;;;2272719;61;1028;-88
2021/05/21 01:57:54;272101.00;0.91;469.96;72751.00;0.24;126.51;;;;;15.80;1.00;;;;;;2272627;61;1052;-88
2021/05/21 02:00:20;249451.00;0.83;431.01;81137.00;0.27;141.00;;;;;15.90;1.00;;;;;;2272630;61;1394;-87
2021/05/21 02:02:47;371756.00;1.24;641.26;77954.00;0.26;135.50;;;;;16.20;1.00;;;;;;2272660;61;1077;-87
2021/05/21 02:05:13;285955.00;0.95;493.78;84614.00;0.28;147.01;;;;;16.20;1.00;;;;;;2272545;61;1057;-87
2021/05/21 02:07:40;225121.00;0.75;389.15;81871.00;0.27;142.27;;;;;16.50;1.00;;;;;;2272596;61;1064;-88
2021/05/21 02:10:08;312235.00;1.04;538.95;63564.00;0.21;110.64;;;;;16.80;1.00;;;;;;2272014;61;1711;-87
2021/05/21 02:12:36;250257.00;0.83;432.39;82836.00;0.28;143.94;;;;;17.00;1.00;;;;;;2272571;61;1919;-87
2021/05/21 02:15:06;591371.00;1.97;1019.32;95578.00;0.32;165.94;;;;;16.90;1.00;;;;;;2272586;61;968;-88
2021/05/21 02:17:32;243555.00;0.81;420.87;81435.00;0.27;141.52;;;;;16.90;1.00;;;;;;2272595;61;1099;-87
2021/05/21 02:20:00;222553.00;0.74;384.74;74665.00;0.25;129.82;;;;;17.00;1.00;;;;;;2272506;61;1404;-87
2021/05/21 02:22:28;242921.00;0.81;419.78;69575.00;0.23;121.03;;;;;16.80;1.00;;;;;;2272574;61;1150;-89
2021/05/21 02:24:56;317254.00;1.06;547.58;78397.00;0.26;136.27;;;;;16.90;1.00;;;;;;2272534;61;1131;-88
2021/05/21 02:27:23;352936.00;1.18;608.91;119870.00;0.40;207.86;;;;;16.90;1.00;;;;;;2272574;61;1112;-87
2021/05/21 02:29:50;376306.00;1.25;649.08;93477.00;0.31;162.31;;;;;17.20;1.00;;;;;;2272510;61;1437;-87
2021/05/21 02:32:17;428206.00;1.43;738.30;79506.00;0.27;138.18;;;;;17.00;1.00;;;;;;2272519;61;1755;-88
2021/05/21 02:34:44;280929.00;0.94;485.13;67309.00;0.22;117.11;;;;;16.90;1.00;;;;;;2272460;61;2001;-87
2021/05/21 02:37:11;196420.00;0.65;339.76;72787.00;0.24;126.58;;;;;17.10;1.00;;;;;;2272557;61;1059;-87
2021/05/21 02:39:38;358764.00;1.20;618.92;108619.00;0.36;188.45;;;;;17.00;1.00;;;;;;2272453;61;1306;-87
2021/05/21 02:42:05;376883.00;1.26;650.07;79464.00;0.26;138.11;;;;;16.90;1.00;;;;;;2272473;61;1064;-87
2021/05/21 02:44:32;254284.00;0.85;439.32;83578.00;0.28;145.22;;;;;16.30;1.00;;;;;;2272499;61;1048;-87
2021/05/21 02:46:59;297367.00;0.99;513.39;75252.00;0.25;130.84;;;;;16.50;1.00;;;;;;2272469;61;1144;-86
2021/05/21 02:49:26;275544.00;0.92;475.88;65819.00;0.22;114.53;;;;;16.80;1.00;;;;;;2272298;61;1134;-87
2021/05/21 02:51:53;343199.00;1.14;592.17;77707.00;0.26;135.08;;;;;16.80;1.00;;;;;;2272418;61;1381;-89
2021/05/21 02:54:20;299543.00;1.00;517.13;61944.00;0.21;107.84;;;;;16.90;1.00;;;;;;2272396;61;2021;-85
2021/05/21 02:56:47;234207.00;0.78;404.79;80116.00;0.27;139.24;;;;;17.10;1.00;;;;;;2272393;61;1132;-87
2021/05/21 02:59:13;263578.00;0.88;455.30;80080.00;0.27;139.18;;;;;16.90;1.00;;;;;;2272346;61;1114;-86
2021/05/21 03:01:41;337124.00;1.12;581.73;78381.00;0.26;136.24;;;;;16.90;1.00;;;;;;2272351;61;1415;-85
2021/05/21 03:04:08;239267.00;0.80;413.49;76705.00;0.26;133.35;;;;;17.10;1.00;;;;;;2272375;61;1068;-88
2021/05/21 03:06:35;260307.00;0.87;449.68;82169.00;0.27;142.78;;;;;16.90;1.00;;;;;;2272398;61;1096;-87
2021/05/21 03:09:01;278630.00;0.93;481.18;77524.00;0.26;134.76;;;;;16.90;1.00;;;;;;2272344;61;1558;-87
2021/05/21 03:11:28;394699.00;1.32;680.69;103027.00;0.34;178.80;;;;;17.00;1.00;;;;;;2272402;61;1320;-86
2021/05/21 03:13:54;278424.00;0.93;480.83;88005.00;0.29;152.86;;;;;17.00;1.00;;;;;;2272344;61;1996;-87
2021/05/21 03:16:21;322134.00;1.07;555.97;84327.00;0.28;146.51;;;;;16.90;1.00;;;;;;2272339;61;1669;-87
2021/05/21 03:18:48;199982.00;0.67;345.89;74568.00;0.25;129.65;;;;;17.10;1.00;;;;;;2272296;61;1120;-87
2021/05/21 03:21:15;264396.00;0.88;456.71;78921.00;0.26;137.17;;;;;17.10;1.00;;;;;;2272239;61;1317;-87
2021/05/21 03:23:41;289181.00;0.96;499.32;82393.00;0.27;143.17;;;;;17.00;1.00;;;;;;2272155;61;1137;-87
2021/05/21 03:26:08;214587.00;0.72;371.03;76865.00;0.26;133.62;;;;;17.20;1.00;;;;;;2271799;61;1124;-88
2021/05/21 03:28:34;276061.00;0.92;476.77;76884.00;0.26;133.65;;;;;17.40;1.00;;;;;;2272292;61;1136;-86
2021/05/21 03:31:01;257010.00;0.86;444.01;86312.00;0.29;149.94;;;;;17.20;1.00;;;;;;2271269;61;1323;-88
2021/05/21 03:33:27;284566.00;0.95;491.39;78185.00;0.26;135.90;;;;;17.10;1.00;;;;;;2270974;61;2014;-87
2021/05/21 03:35:54;310797.00;1.04;536.48;77209.00;0.26;134.22;;;;;17.00;1.00;;;;;;2271130;61;1061;-87
2021/05/21 03:38:21;342848.00;1.14;591.57;78499.00;0.26;136.44;;;;;16.70;1.00;;;;;;2268857;61;1092;-89
2021/05/21 03:40:47;295166.00;0.98;509.61;61906.00;0.21;107.77;;;;;16.50;1.00;;;;;;2268768;61;1269;-89
2021/05/21 03:43:14;242558.00;0.81;419.15;79236.00;0.26;137.72;;;;;16.20;1.00;;;;;;2268704;61;1198;-88
2021/05/21 03:45:40;236566.00;0.79;408.84;73380.00;0.24;127.60;;;;;16.30;1.00;;;;;;2268302;61;1202;-87
2021/05/21 03:48:08;207777.00;0.69;359.31;78112.00;0.26;135.78;;;;;16.70;1.00;;;;;;2268126;61;1128;-88
2021/05/21 03:50:34;249044.00;0.83;430.31;78422.00;0.26;136.31;;;;;16.70;1.00;;;;;;2267862;61;1287;-88
2021/05/21 03:53:01;207196.00;0.69;358.31;75849.00;0.25;131.87;;;;;16.80;1.00;;;;;;2268509;61;1943;-88
2021/05/21 03:55:28;239403.00;0.80;413.72;81051.00;0.27;140.85;;;;;16.80;1.00;;;;;;2268217;61;1164;-88
2021/05/21 03:57:56;255559.00;0.85;441.51;79881.00;0.27;138.83;;;;;16.90;1.00;;;;;;2268178;61;1134;-88
2021/05/21 04:00:23;304665.00;1.02;525.94;77097.00;0.26;134.02;;;;;16.70;1.00;;;;;;2268098;61;1403;-89
2021/05/21 04:02:50;272581.00;0.91;470.78;79162.00;0.26;137.59;;;;;16.60;1.00;;;;;;2268173;61;1673;-88
2021/05/21 04:05:18;272525.00;0.91;470.69;80172.00;0.27;139.33;;;;;16.70;1.00;;;;;;2268561;61;1561;-88
2021/05/21 04:07:44;117378160.00;391.26;65507376.00;82104.00;0.27;142.67;;;;;16.60;1.00;;;;;;2268439;61;1236;-89
2021/05/21 04:10:12;231679.00;0.77;400.44;75358.00;0.25;131.02;;;;;16.60;1.00;;;;;;2268351;61;1264;-88
2021/05/21 04:12:39;298190.00;0.99;514.81;78080.00;0.26;135.72;;;;;16.50;1.00;;;;;;2268054;61;1945;-87
2021/05/21 04:15:07;333257.00;1.11;575.08;77152.00;0.26;134.12;;;;;16.40;1.00;;;;;;2268175;61;1164;-88
2021/05/21 04:17:33;326190.00;1.09;562.94;77013.00;0.26;133.88;;;;;16.40;1.00;;;;;;2268404;61;1152;-88
2021/05/21 04:20:00;267625.00;0.89;462.26;70065.00;0.23;121.87;;;;;16.40;1.00;;;;;;2268237;61;1363;-88
2021/05/21 04:22:27;252422.00;0.84;436.12;75604.00;0.25;131.44;;;;;16.30;1.00;;;;;;2267747;61;1162;-88
2021/05/21 04:24:53;250438.00;0.83;432.70;80003.00;0.27;139.04;;;;;16.40;1.00;;;;;;2268460;61;1072;-88
2021/05/21 04:27:19;279857.00;0.93;483.29;73354.00;0.24;127.56;;;;;16.50;1.00;;;;;;2267860;61;1153;-90
2021/05/21 04:29:47;266022.00;0.89;459.50;70104.00;0.23;121.94;;;;;16.60;1.00;;;;;;2270302;61;1345;-88
2021/05/21 04:32:13;264077.00;0.88;456.16;78609.00;0.26;136.63;;;;;16.40;1.00;;;;;;2268454;61;1139;-88
2021/05/21 04:34:41;474126.00;1.58;817.29;98912.00;0.33;171.69;;;;;16.10;1.00;;;;;;2268174;61;2022;-88
2021/05/21 04:37:08;253016.00;0.84;437.14;73359.00;0.24;127.56;;;;;16.10;1.00;;;;;;2268388;61;1235;-89
2021/05/21 04:39:34;295070.00;0.98;509.45;89343.00;0.30;155.17;;;;;16.50;1.00;;;;;;2267919;61;1383;-87
2021/05/21 04:42:01;293446.00;0.98;506.65;80731.00;0.27;140.30;;;;;16.60;1.00;;;;;;2268187;61;1725;-88
2021/05/21 04:44:27;570365.00;1.90;983.08;77183.00;0.26;134.17;;;;;16.90;1.00;;;;;;2268565;61;1130;-88
2021/05/21 04:46:54;214898.00;0.72;371.56;72840.00;0.24;126.67;;;;;16.90;1.00;;;;;;2268767;61;1100;-87
2021/05/21 04:49:34;272373.00;0.91;470.42;76055.00;0.25;132.22;;;;;16.80;1.00;;;;;;2268704;61;1120;-87
2021/05/21 04:52:01;471305.00;1.57;812.44;75461.00;0.25;131.20;;;;;17.00;1.00;;;;;;2267792;61;1091;-88
2021/05/21 04:54:28;472737.00;1.58;814.90;81089.00;0.27;140.92;;;;;16.90;1.00;;;;;;2268241;61;2002;-87
2021/05/21 04:56:55;391374.00;1.30;674.98;78640.00;0.26;136.69;;;;;16.90;1.00;;;;;;2268594;61;1045;-87
2021/05/21 04:59:21;430896.00;1.44;742.93;71427.00;0.24;124.23;;;;;16.70;1.00;;;;;;2268574;61;1099;-87
2021/05/21 05:01:49;464769.00;1.55;801.19;80187.00;0.27;139.36;;;;;16.40;1.00;;;;;;2268354;61;1359;-88
2021/05/21 05:04:16;607085.00;2.02;1046.45;79595.00;0.27;138.34;;;;;16.60;1.00;;;;;;2267890;61;1122;-89
2021/05/21 05:06:42;398044.00;1.33;686.44;75566.00;0.25;131.38;;;;;16.80;1.00;;;;;;2267746;61;1137;-88
2021/05/21 05:09:10;440424.00;1.47;759.31;67244.00;0.22;117.00;;;;;17.10;1.00;;;;;;2270099;61;1703;-88
2021/05/21 05:11:39;462568.00;1.54;797.40;60449.00;0.20;105.25;;;;;17.30;1.00;;;;;;2270168;61;1747;-87
2021/05/21 05:14:06;373763.00;1.25;644.70;0.00;0.00;0.62;;;;;17.30;1.00;;;;;;2269766;61;1994;-88
2021/05/21 05:16:32;401031.00;1.34;691.58;0.00;0.00;0.62;;;;;17.00;1.00;;;;;;2269156;61;1156;-88
2021/05/21 05:18:59;297925.00;0.99;514.35;0.00;0.00;0.62;;;;;16.90;1.00;;;;;;2269496;61;1188;-88
2021/05/21 05:21:27;309014.00;1.03;533.41;0.00;0.00;0.62;;;;;17.00;1.00;;;;;;2268921;61;1368;-88
2021/05/21 05:23:54;458217.00;1.53;789.92;0.00;0.00;0.62;;;;;17.10;1.00;;;;;;2269260;61;1753;-88
2021/05/21 05:26:20;237003.00;0.79;409.60;0.00;0.00;0.62;;;;;17.20;1.00;;;;;;2269245;61;1115;-88
2021/05/21 05:28:49;396722.00;1.32;684.17;55404.00;0.18;96.53;;;;;17.30;1.00;;;;;;2268706;61;1140;-88
2021/05/21 05:31:16;230058.00;0.77;397.65;0.00;0.00;0.62;;;;;17.30;1.00;;;;;;2269263;61;1991;-88
2021/05/21 05:33:43;342051.00;1.14;590.20;0.00;0.00;0.62;;;;;17.20;1.00;;;;;;2269402;61;1939;-88
2021/05/21 05:36:09;506710.00;1.69;873.38;83642.00;0.28;145.33;;;;;17.20;1.00;;;;;;2268658;61;1135;-88
2021/05/21 05:38:36;368045.00;1.23;634.88;93070.00;0.31;161.61;;;;;17.50;1.00;;;;;;2268780;61;1108;-88
2021/05/21 05:41:03;147374.00;0.49;255.28;0.00;0.00;0.62;;;;;17.50;1.00;;;;;;2269027;61;1385;-87
2021/05/21 05:43:29;398598.00;1.33;687.40;75658.00;0.25;131.54;;;;;17.70;1.00;;;;;;2268853;61;1153;-89
2021/05/21 05:45:56;391960.00;1.31;675.98;84845.00;0.28;147.41;;;;;17.90;1.00;;;;;;2268908;61;1098;-88
2021/05/21 05:48:22;532821.00;1.78;918.35;71009.00;0.24;123.50;;;;;17.80;1.00;;;;;;2267733;61;1147;-88
2021/05/21 05:50:50;423347.00;1.41;729.95;86355.00;0.29;150.01;;;;;17.50;1.00;;;;;;2269732;61;1391;-88
2021/05/21 05:53:18;366588.00;1.22;632.37;75919.00;0.25;131.99;;;;;17.20;1.00;;;;;;2272285;61;2028;-88
2021/05/21 05:55:46;438438.00;1.46;755.90;90115.00;0.30;156.51;;;;;17.30;1.00;;;;;;2272430;61;1681;-88
2021/05/21 05:58:13;864701.00;2.88;1494.21;233968.00;0.78;404.38;;;;;17.50;1.00;;;;;;2272488;61;1129;-88
2021/05/21 06:05:42;310871.00;1.04;536.61;0.00;0.00;0.62;;;;;17.70;1.00;;;;;;2278339;61;1257;-85
2021/05/21 06:08:08;63201.00;0.21;110.01;0.00;0.00;0.62;;;;;18.10;1.00;;;;;;2269571;61;987;-85
2021/05/21 06:10:37;246271.00;0.82;425.54;0.00;0.00;0.62;;;;;18.50;1.00;;;;;;2275443;61;1452;-85
2021/05/21 06:13:06;97638.00;0.33;169.49;0.00;0.00;0.62;;;;;18.70;1.00;;;;;;2272626;61;1978;-86
2021/05/21 06:15:33;285146.00;0.95;492.38;36090.00;0.12;63.12;;;;;18.70;1.00;;;;;;2272616;61;1064;-86
2021/05/21 06:18:00;203949.00;0.68;352.72;0.00;0.00;0.62;;;;;18.90;1.00;;;;;;2272560;61;1058;-86
2021/05/21 06:20:29;217858.00;0.73;376.66;0.00;0.00;0.62;;;;;19.10;1.00;;;;;;2272517;61;1383;-85
2021/05/21 06:22:56;159320.00;0.53;275.87;0.00;0.00;0.62;;;;;19.10;1.00;;;;;;2272639;61;1009;-86
2021/05/21 06:25:28;204924.00;0.68;354.40;0.00;0.00;0.62;;;;;19.20;1.00;;;;;;2272403;61;941;-85
2021/05/21 06:27:54;72967.00;0.24;126.89;0.00;0.00;0.62;;;;;19.40;1.00;;;;;;2272628;61;942;-85
2021/05/21 06:30:21;431665.00;1.44;744.25;90775.00;0.30;157.65;;;;;19.40;1.00;;;;;;2272585;61;1325;-85
2021/05/21 06:32:48;311620.00;1.04;537.89;73211.00;0.24;127.31;;;;;19.30;1.00;;;;;;2263913;61;1994;-85
2021/05/21 06:35:15;390267.00;1.30;673.07;69378.00;0.23;120.69;;;;;19.10;1.00;;;;;;2259740;61;930;-84
2021/05/21 06:37:41;355815.00;1.19;613.86;75240.00;0.25;130.81;;;;;19.00;1.00;;;;;;2264043;61;1025;-86
2021/05/21 06:40:10;254638.00;0.85;439.93;77951.00;0.26;135.50;;;;;18.90;1.00;;;;;;2257319;61;1453;-85
2021/05/21 06:42:36;464415.00;1.55;800.58;73057.00;0.24;127.04;;;;;19.00;1.00;;;;;;2264022;61;948;-84
2021/05/21 06:45:03;340265.00;1.13;587.13;81231.00;0.27;141.16;;;;;19.10;1.00;;;;;;2263923;61;991;-86
2021/05/21 06:47:30;358377.00;1.19;618.26;79818.00;0.27;138.72;;;;;19.20;1.00;;;;;;2259885;61;986;-85
2021/05/21 06:49:57;534998.00;1.78;922.10;143422.00;0.48;248.47;;;;;19.10;1.00;;;;;;2257086;61;1408;-85
2021/05/21 06:52:23;388710.00;1.30;670.40;70863.00;0.24;123.25;;;;;19.10;1.00;;;;;;2255866;61;953;-86
2021/05/21 06:54:49;340674.00;1.14;587.83;60447.00;0.20;105.25;;;;;19.00;1.00;;;;;;2255950;61;2002;-85
2021/05/21 06:57:16;348836.00;1.16;601.86;53013.00;0.18;92.40;;;;;19.20;1.00;;;;;;2255997;61;1039;-85
2021/05/21 06:59:42;375064.00;1.25;646.94;44598.00;0.15;77.84;;;;;19.40;1.00;;;;;;2249332;61;939;-85
2021/05/21 07:02:09;451146.00;1.50;777.75;62142.00;0.21;108.18;;;;;19.30;1.00;;;;;;2255433;61;1310;-86
2021/05/21 07:04:36;188403.00;0.63;325.96;77928.00;0.26;135.46;;;;;19.50;1.00;;;;;;2256727;61;997;-85
2021/05/21 07:07:03;331748.00;1.11;572.49;80888.00;0.27;140.57;;;;;19.50;1.00;;;;;;2260569;61;1001;-85
2021/05/21 07:09:30;194915.00;0.65;337.17;83023.00;0.28;144.26;;;;;19.50;1.00;;;;;;2264930;61;1034;-86
2021/05/21 07:11:56;299937.00;1.00;517.81;73906.00;0.25;128.51;;;;;19.50;1.00;;;;;;2263979;61;1295;-84
2021/05/21 07:14:22;234023.00;0.78;404.47;75176.00;0.25;130.70;;;;;19.50;1.00;;;;;;2265532;61;2013;-84
2021/05/21 07:16:49;336965.00;1.12;581.46;73511.00;0.25;127.83;;;;;19.50;1.00;;;;;;2265080;61;1118;-84
2021/05/21 07:19:17;276821.00;0.92;478.07;72198.00;0.24;125.56;;;;;19.50;1.00;;;;;;2268580;61;1152;-86
2021/05/21 07:21:45;218565.00;0.73;377.87;73672.00;0.25;128.11;;;;;19.60;1.00;;;;;;2265258;61;1305;-86
2021/05/21 07:24:11;345858.00;1.15;596.74;76765.00;0.26;133.45;;;;;19.90;1.00;;;;;;2263847;61;1055;-85
2021/05/21 07:26:38;599511.00;2.00;1033.38;149148.00;0.50;258.34;;;;;20.30;1.00;;;;;;2259803;61;1008;-85
2021/05/21 07:29:05;260658.00;0.87;450.28;70128.00;0.23;121.98;;;;;20.40;1.00;;;;;;2259804;61;1223;-86
2021/05/21 07:31:32;362997.00;1.21;626.20;67262.00;0.22;117.03;;;;;20.60;1.00;;;;;;2259751;61;1586;-85
2021/05/21 07:34:00;466248.00;1.55;803.73;71584.00;0.24;124.50;;;;;20.70;1.00;;;;;;2259829;61;1999;-84
2021/05/21 07:36:29;300351.00;1.00;518.52;80250.00;0.27;139.47;;;;;20.70;1.00;;;;;;2253033;61;978;-86
2021/05/21 07:38:58;410048.00;1.37;707.08;106516.00;0.36;184.82;;;;;21.00;1.00;;;;;;2253134;61;1014;-85
2021/05/21 07:41:25;303590.00;1.01;524.09;70235.00;0.23;122.17;;;;;21.30;1.00;;;;;;2257633;61;1324;-86
2021/05/21 07:43:52;355729.00;1.19;613.71;75980.00;0.25;132.09;;;;;21.40;1.00;;;;;;2259755;61;1008;-86
2021/05/21 07:46:19;166744.00;0.56;288.66;0.00;0.00;0.62;;;;;21.50;1.00;;;;;;2256427;61;1018;-85
2021/05/21 07:48:45;474414.00;1.58;817.78;145091.00;0.48;251.35;;;;;21.70;1.00;;;;;;2256418;61;986;-85
2021/05/21 07:51:12;359184.00;1.20;619.65;69891.00;0.23;121.57;;;;;21.70;1.00;;;;;;2247716;61;1416;-86
2021/05/21 07:53:39;488323.00;1.63;841.72;126839.00;0.42;219.88;;;;;21.60;1.00;;;;;;2241205;61;2009;-85
2021/05/21 07:56:06;268200.00;0.89;463.25;81549.00;0.27;141.71;;;;;21.70;1.00;;;;;;2247750;61;1156;-86
2021/05/21 07:58:33;338637.00;1.13;584.33;73308.00;0.24;127.48;;;;;21.60;1.00;;;;;;2247699;61;1112;-85
2021/05/21 08:01:00;348981.00;1.16;602.11;74650.00;0.25;129.79;;;;;21.50;1.00;;;;;;2249141;61;1325;-85
2021/05/21 08:03:27;254924.00;0.85;440.42;21235.00;0.07;37.41;;;;;20.80;1.00;;;;;;2259660;61;1233;-85
2021/05/21 08:05:53;208907.00;0.70;361.25;0.00;0.00;0.62;;;;;20.50;1.00;;;;;;2259609;61;1158;-85
2021/05/21 08:08:23;458155.00;1.53;789.81;80284.00;0.27;139.53;;;;;20.50;1.00;;;;;;2257706;61;973;-86
2021/05/21 08:10:49;284423.00;0.95;491.14;0.00;0.00;0.62;;;;;20.60;1.00;;;;;;2272128;61;1379;-85
2021/05/21 08:13:17;182087.00;0.61;315.08;0.00;0.00;0.62;;;;;20.60;1.00;;;;;;2272116;61;2001;-85
2021/05/21 08:15:44;26921.00;0.09;47.25;0.00;0.00;0.62;;;;;20.50;1.00;;;;;;2265026;61;1004;-84
2021/05/21 08:18:11;201343.00;0.67;348.24;15054.00;0.05;26.70;;;;;20.50;1.00;;;;;;2263380;61;961;-86
2021/05/21 08:20:38;250865.00;0.84;433.44;74019.00;0.25;128.70;;;;;20.20;1.00;;;;;;2259406;61;1306;-85
2021/05/21 08:23:04;372617.00;1.24;642.73;78586.00;0.26;136.59;;;;;19.80;1.00;;;;;;2256165;61;942;-84
2021/05/21 08:25:31;275777.00;0.92;476.28;76004.00;0.25;132.13;;;;;19.70;1.00;;;;;;2251257;61;1055;-85
2021/05/21 08:27:57;342826.00;1.14;591.53;56721.00;0.19;98.81;;;;;20.10;1.00;;;;;;2245022;61;1028;-84
2021/05/21 08:30:25;232327.00;0.77;401.55;71900.00;0.24;125.04;;;;;20.00;1.00;;;;;;2251591;61;1279;-84
2021/05/21 08:32:51;369821.00;1.23;637.93;75253.00;0.25;130.84;;;;;19.60;1.00;;;;;;2251562;61;1121;-85
2021/05/21 08:35:18;469539.00;1.57;809.40;82045.00;0.27;142.57;;;;;19.60;1.00;;;;;;2252020;61;1999;-85
2021/05/21 08:37:45;330516.00;1.10;570.37;75568.00;0.25;131.38;;;;;19.60;1.00;;;;;;2256538;61;1539;-85
2021/05/21 08:40:19;500527.00;1.67;862.73;87872.00;0.29;152.63;;;;;19.70;1.00;;;;;;2260210;61;1359;-85
2021/05/21 08:42:47;167268.00;0.56;289.56;0.00;0.00;0.62;;;;;19.80;1.00;;;;;;2255130;61;993;-84
2021/05/21 08:45:16;187081.00;0.62;323.68;0.00;0.00;0.62;;;;;19.60;1.00;;;;;;2265045;61;998;-85
2021/05/21 08:47:44;138731.00;0.46;240.38;0.00;0.00;0.62;;;;;19.60;1.00;;;;;;2268502;61;1019;-85
2021/05/21 08:50:12;238537.00;0.80;412.23;0.00;0.00;0.62;;;;;19.80;1.00;;;;;;2265637;61;1461;-86
2021/05/21 08:52:38;383177.00;1.28;660.89;33646.00;0.11;58.89;;;;;19.80;1.00;;;;;;2272815;61;1033;-86
2021/05/21 08:55:06;219517.00;0.73;379.51;0.00;0.00;0.62;;;;;19.60;1.00;;;;;;2272811;61;1995;-85
2021/05/21 08:57:33;238781.00;0.80;412.65;0.00;0.00;0.62;;;;;19.30;1.00;;;;;;2272594;61;1678;-86
2021/05/21 09:00:00;695337.00;2.32;1199.15;244945.00;0.82;423.26;;;;;18.80;1.00;;;;;;2264079;61;1404;-86
2021/05/21 09:02:29;294642.00;0.98;508.71;0.00;0.00;0.62;;;;;18.80;1.00;;;;;;2264193;61;1256;-86
2021/05/21 09:04:58;179854.00;0.60;311.24;0.00;0.00;0.62;;;;;18.50;1.00;;;;;;2264047;61;1603;-86
2021/05/21 09:07:26;135176.00;0.45;234.25;0.00;0.00;0.62;;;;;18.70;1.00;;;;;;2264085;61;1316;-86
2021/05/21 09:09:53;241040.00;0.80;416.54;0.00;0.00;0.62;;;;;18.80;1.00;;;;;;2264219;61;959;-85
2021/05/21 09:12:20;193959.00;0.65;335.52;0.00;0.00;0.62;;;;;18.40;1.00;;;;;;2264237;61;1447;-85
2021/05/21 09:15:07;96607.00;0.32;167.71;0.00;0.00;0.62;;;;;18.30;1.00;;;;;;2264157;61;1922;-86
2021/05/21 09:17:34;0.00;0.00;0.62;0.00;0.00;0.62;;;;;18.00;1.00;;;;;;2266932;61;1075;-85
2021/05/21 09:20:02;15075.00;0.05;26.74;0.00;0.00;0.62;;;;;17.60;1.00;;;;;;2272695;61;1292;-85
2021/05/21 09:22:28;101464.00;0.34;176.10;0.00;0.00;0.62;;;;;17.50;1.00;;;;;;2272643;61;1100;-85
2021/05/21 09:24:54;312599.00;1.04;539.58;77220.00;0.26;134.24;;;;;17.60;1.00;;;;;;2272718;61;1159;-85
2021/05/21 09:27:22;241864.00;0.81;417.96;70005.00;0.23;121.77;;;;;17.80;1.00;;;;;;2272638;61;1606;-84
2021/05/21 09:29:51;164295.00;0.55;284.44;72823.00;0.24;126.64;;;;;17.90;1.00;;;;;;2272698;61;1105;-85
2021/05/21 09:32:23;300496.00;1.00;518.77;0.00;0.00;0.62;;;;;18.00;1.00;;;;;;2272444;61;1943;-86
2021/05/21 09:35:02;56021.00;0.19;97.60;0.00;0.00;0.62;;;;;17.80;1.00;;;;;;2272524;61;1992;-86
2021/05/21 09:37:30;0.00;0.00;0.62;0.00;0.00;0.62;;;;;18.10;1.00;;;;;;2272662;61;1049;-84